createdAt,value
2022-09-04T00:01:30.873Z,3.38
2022-09-04T00:04:49.357Z,2.70
2022-09-04T00:08:15.990Z,2.80
2022-09-04T00:11:26.925Z,2.50
2022-09-04T00:14:43.814Z,2.50
2022-09-04T00:18:08.359Z,2.30
2022-09-04T00:21:37.068Z,2.60
2022-09-04T00:24:43.132Z,2.25
2022-09-04T00:27:50.315Z,2.30
2022-09-04T00:31:19.779Z,2.60
2022-09-04T00:34:46.479Z,2.38
2022-09-04T00:37:56.598Z,2.22
2022-09-04T00:41:20.503Z,2.05
2022-09-04T00:44:45.982Z,2.30
2022-09-04T00:48:05.836Z,2.17
2022-09-04T00:51:26.208Z,2.83
2022-09-04T00:55:20.430Z,2.20
2022-09-04T00:58:35.388Z,2.30
2022-09-04T01:01:38.933Z,2.40
2022-09-04T01:04:55.834Z,2.30
2022-09-04T01:08:23.604Z,2.42
2022-09-04T01:11:52.375Z,2.70
2022-09-04T01:15:03.862Z,2.80
2022-09-04T01:18:17.437Z,2.50
2022-09-04T01:21:34.215Z,2.45
2022-09-04T01:24:48.141Z,2.38
2022-09-04T01:28:13.601Z,2.50
2022-09-04T01:31:31.973Z,2.50
2022-09-04T01:35:01.754Z,2.17
2022-09-04T01:38:16.647Z,2.40
2022-09-04T01:41:40.953Z,2.30
2022-09-04T01:44:42.879Z,2.33
2022-09-04T01:47:58.157Z,2.40
2022-09-04T01:51:25.412Z,2.30
2022-09-04T01:55:11.361Z,2.50
2022-09-04T01:59:03.924Z,2.45
2022-09-04T02:02:38.890Z,2.22
2022-09-04T02:09:35.085Z,2.35
2022-09-04T02:12:54.081Z,2.22
2022-09-04T05:28:20.357Z,3.10
2022-09-04T05:31:58.962Z,3.00
2022-09-04T05:35:22.114Z,2.70
2022-09-04T05:38:46.793Z,2.58
2022-09-04T05:41:54.913Z,3.00
2022-09-04T05:45:05.787Z,2.70
2022-09-04T05:48:19.616Z,3.10
2022-09-04T05:51:38.702Z,2.97
2022-09-04T05:55:13.315Z,2.80
2022-09-04T05:58:46.380Z,3.17
2022-09-04T06:02:56.818Z,2.65
2022-09-04T06:06:46.116Z,2.78
2022-09-04T06:10:33.928Z,3.00
2022-09-04T06:13:54.020Z,2.92
2022-09-04T06:17:15.310Z,3.50
2022-09-04T06:20:29.287Z,2.90
2022-09-04T06:23:34.170Z,2.83
2022-09-04T06:26:51.191Z,3.08
2022-09-04T06:29:58.968Z,3.10
2022-09-04T06:33:13.388Z,3.20
2022-09-04T06:36:49.159Z,2.95
2022-09-04T06:40:46.422Z,2.83
2022-09-04T06:44:06.409Z,3.17
2022-09-04T06:47:30.218Z,2.90
2022-09-04T06:50:32.136Z,3.30
2022-09-04T06:53:46.514Z,3.00
2022-09-04T06:57:06.408Z,3.10
2022-09-04T07:00:09.411Z,3.20
2022-09-04T07:03:28.739Z,3.08
2022-09-04T07:06:54.577Z,2.90
2022-09-04T07:14:25.116Z,3.03
2022-09-04T07:17:38.207Z,3.10
2022-09-04T07:20:58.739Z,2.80
2022-09-04T07:24:14.006Z,2.97
2022-09-04T07:37:04.708Z,3.20
2022-09-04T07:41:00.325Z,3.40
2022-09-04T07:44:29.317Z,2.80
2022-09-04T07:47:44.554Z,3.20
2022-09-04T07:51:04.975Z,3.45
2022-09-04T07:54:48.660Z,3.20
2022-09-04T07:58:07.949Z,3.00
2022-09-04T08:01:23.351Z,3.60
2022-09-04T08:05:00.234Z,3.00
2022-09-04T08:08:37.272Z,3.50
2022-09-04T08:11:45.562Z,3.13
2022-09-04T08:15:04.744Z,3.20
2022-09-04T08:18:27.677Z,3.17
2022-09-04T08:21:30.543Z,3.17
2022-09-04T08:25:02.739Z,3.40
2022-09-04T08:28:26.980Z,3.22
2022-09-04T08:31:47.330Z,3.25
2022-09-04T08:35:07.339Z,3.35
2022-09-04T08:38:26.877Z,3.10
2022-09-04T08:41:41.820Z,3.35
2022-09-04T08:45:20.292Z,3.22
2022-09-04T08:48:59.601Z,3.35
2022-09-04T08:52:35.185Z,3.17
2022-09-04T08:56:06.507Z,3.20
2022-09-04T08:59:36.894Z,3.00
2022-09-04T09:02:59.932Z,3.53
2022-09-04T09:06:27.758Z,3.30
2022-09-04T09:10:01.230Z,3.55
2022-09-04T09:13:28.597Z,3.10
2022-09-04T09:17:13.658Z,3.30
2022-09-04T09:20:19.379Z,3.45
2022-09-04T09:26:27.690Z,2.85
2022-09-04T09:29:41.836Z,3.30
2022-09-04T09:32:46.514Z,3.22
2022-09-04T09:36:20.213Z,3.40
2022-09-04T09:40:00.804Z,3.35
2022-09-04T09:43:24.494Z,2.92
2022-09-04T09:47:08.443Z,2.92
2022-09-04T09:50:41.358Z,3.03
2022-09-04T09:53:58.238Z,2.97
2022-09-04T09:57:29.693Z,2.92
2022-09-04T10:01:09.479Z,2.92
2022-09-04T10:04:49.720Z,2.70
2022-09-04T10:07:54.339Z,2.92
2022-09-04T10:10:57.201Z,2.97
2022-09-04T10:14:09.431Z,3.00
2022-09-04T10:17:32.922Z,3.25
2022-09-04T10:21:10.550Z,3.38
2022-09-04T10:24:23.461Z,3.25
2022-09-04T10:27:48.605Z,3.10
2022-09-04T10:31:13.240Z,3.75
2022-09-04T10:34:37.001Z,3.20
2022-09-04T10:38:06.443Z,2.90
2022-09-04T10:41:26.757Z,2.85
2022-09-04T10:44:44.241Z,3.17
2022-09-04T10:48:12.594Z,2.88
2022-09-04T10:51:35.689Z,3.08
2022-09-04T10:54:56.264Z,3.20
2022-09-04T10:58:17.150Z,3.10
2022-09-04T11:01:31.262Z,3.00
2022-09-04T11:04:52.604Z,3.25
2022-09-04T11:08:25.205Z,3.20
2022-09-04T11:11:52.862Z,3.05
2022-09-04T11:15:13.494Z,3.58
2022-09-04T11:18:38.086Z,2.88
2022-09-04T11:21:51.905Z,2.70
2022-09-04T11:25:04.351Z,2.85
2022-09-04T11:28:40.222Z,2.90
2022-09-04T11:32:15.687Z,2.58
2022-09-04T11:35:34.006Z,2.72
2022-09-04T11:38:58.689Z,2.70
2022-09-04T11:42:28.310Z,2.50
2022-09-04T11:46:00.965Z,2.38
2022-09-04T11:49:13.404Z,2.67
2022-09-04T11:52:22.657Z,2.60
2022-09-04T11:55:36.508Z,2.60
2022-09-04T11:59:10.908Z,2.50
2022-09-04T12:02:29.577Z,2.70
2022-09-04T12:05:56.171Z,2.25
2022-09-04T12:09:05.036Z,2.42
2022-09-04T12:12:32.533Z,2.45
2022-09-04T12:16:19.309Z,2.40
2022-09-04T12:19:40.008Z,2.17
2022-09-04T12:23:06.463Z,2.47
2022-09-04T12:26:26.356Z,2.20
2022-09-04T12:29:50.472Z,2.42
2022-09-04T12:33:03.296Z,2.28
2022-09-04T12:36:34.725Z,2.50
2022-09-04T12:39:51.720Z,2.15
2022-09-04T12:43:20.497Z,2.50
2022-09-04T12:46:39.105Z,2.30
2022-09-04T12:50:11.402Z,2.30
2022-09-04T12:53:37.315Z,2.28
2022-09-04T12:56:49.334Z,2.27
2022-09-04T13:00:12.287Z,2.20
2022-09-04T13:03:23.411Z,2.35
2022-09-04T13:06:45.202Z,2.30
2022-09-04T13:10:23.106Z,2.70
2022-09-04T13:13:48.450Z,2.10
2022-09-04T13:16:57.637Z,2.28
2022-09-04T13:20:14.340Z,2.30
2022-09-04T13:23:37.988Z,2.10
2022-09-04T13:27:06.870Z,1.98
2022-09-04T13:30:10.031Z,2.20
2022-09-04T13:33:49.662Z,2.13
2022-09-04T13:37:10.955Z,2.15
2022-09-04T13:40:54.912Z,2.28
2022-09-04T13:44:17.816Z,2.50
2022-09-04T13:47:32.070Z,1.95
2022-09-04T13:50:42.520Z,2.40
2022-09-04T13:54:10.871Z,2.17
2022-09-04T13:57:18.128Z,1.98
2022-09-04T14:00:21.473Z,2.05
2022-09-04T14:03:33.686Z,2.00
2022-09-04T14:06:36.980Z,2.40
2022-09-04T14:09:45.006Z,2.28
2022-09-04T14:13:04.874Z,2.20
2022-09-04T14:16:10.900Z,2.50
2022-09-04T14:22:46.295Z,2.10
2022-09-04T14:26:06.270Z,2.03
2022-09-04T14:29:10.828Z,2.10
2022-09-04T14:32:32.182Z,2.13
2022-09-04T14:36:14.973Z,2.00
2022-09-04T14:39:22.841Z,2.00
2022-09-04T14:42:58.353Z,2.03
2022-09-04T14:46:19.208Z,2.20
2022-09-04T14:49:31.990Z,2.20
2022-09-04T14:52:41.064Z,2.30
2022-09-04T14:56:04.808Z,2.28
2022-09-04T14:59:12.876Z,2.40
2022-09-04T15:02:28.254Z,2.20
2022-09-04T15:05:51.525Z,2.10
2022-09-04T15:08:54.154Z,2.33
2022-09-04T15:12:24.314Z,2.15
2022-09-04T15:15:35.027Z,2.20
2022-09-04T15:18:40.678Z,2.13
2022-09-04T15:21:55.136Z,2.22
2022-09-04T15:24:57.146Z,1.90
2022-09-04T15:28:10.695Z,2.30
2022-09-04T15:31:18.419Z,2.15
2022-09-04T15:34:25.838Z,1.92
2022-09-04T15:37:28.692Z,2.15
2022-09-04T15:40:35.128Z,2.00
2022-09-04T15:43:48.322Z,2.03
2022-09-04T15:47:15.980Z,2.20
2022-09-04T15:50:21.962Z,2.05
2022-09-04T15:56:38.774Z,2.33
2022-09-04T15:59:46.439Z,2.30
2022-09-04T16:03:03.411Z,2.00
2022-09-04T16:06:19.323Z,2.30
2022-09-04T16:09:30.841Z,2.45
2022-09-04T16:12:38.795Z,2.30
2022-09-04T16:15:45.993Z,1.95
2022-09-04T16:19:14.298Z,2.00
2022-09-04T16:22:47.778Z,2.03
2022-09-04T16:25:50.854Z,2.28
2022-09-04T16:29:02.662Z,2.00
2022-09-04T16:32:12.251Z,2.20
2022-09-04T16:35:21.508Z,1.98
2022-09-04T16:38:47.446Z,2.13
2022-09-04T16:41:51.866Z,2.13
2022-09-04T16:45:03.177Z,2.08
2022-09-04T16:48:33.882Z,2.40
2022-09-04T16:51:48.565Z,2.25
2022-09-04T16:55:10.537Z,2.10
2022-09-04T16:58:12.094Z,2.33
2022-09-04T17:01:17.887Z,2.40
2022-09-04T17:04:39.745Z,2.20
2022-09-04T17:07:49.326Z,2.35
2022-09-04T17:11:14.742Z,2.13
2022-09-04T17:14:35.502Z,2.03
2022-09-04T17:17:41.567Z,2.10
2022-09-04T17:28:57.996Z,2.30
2022-09-04T17:29:16.212Z,2.38
2022-09-04T17:31:45.526Z,2.30
2022-09-04T17:40:34.778Z,2.40
2022-09-04T17:40:37.325Z,2.30
2022-09-04T17:42:14.878Z,2.50
2022-09-04T17:45:33.868Z,2.58
2022-09-04T17:48:46.165Z,2.47
2022-09-04T17:51:57.466Z,2.38
2022-09-04T17:55:12.951Z,2.60
2022-09-04T17:58:26.886Z,2.40
2022-09-04T18:02:17.569Z,2.40
2022-09-04T18:05:28.319Z,2.33
2022-09-04T18:08:43.574Z,2.50
2022-09-04T18:12:00.916Z,2.50
2022-09-04T18:15:33.696Z,2.60
2022-09-04T18:19:09.648Z,2.60
2022-09-04T18:22:33.707Z,2.45
2022-09-04T18:25:54.141Z,2.67
2022-09-04T18:30:11.914Z,2.40
2022-09-04T18:37:16.530Z,3.00
2022-09-04T18:37:20.116Z,2.60
2022-09-04T18:40:06.897Z,2.67
2022-09-04T18:50:22.959Z,2.60
2022-09-04T18:50:37.752Z,2.50
2022-09-04T18:50:44.415Z,2.53
2022-09-04T18:53:33.028Z,2.30
2022-09-04T18:56:43.232Z,2.55
2022-09-04T18:59:46.624Z,2.80
2022-09-04T19:03:18.233Z,2.85
2022-09-04T19:07:06.750Z,2.90
2022-09-04T19:10:18.606Z,2.70
2022-09-04T19:13:28.748Z,2.90
2022-09-04T19:17:08.076Z,2.70
2022-09-04T19:20:15.705Z,2.70
2022-09-04T19:23:28.566Z,2.60
2022-09-04T19:26:43.413Z,2.70
2022-09-04T19:30:19.965Z,2.90
2022-09-04T19:33:39.413Z,2.80
2022-09-04T19:41:39.586Z,2.88
2022-09-04T19:45:58.926Z,3.00
2022-09-04T19:46:11.287Z,2.58
2022-09-04T19:50:44.148Z,2.92
2022-09-04T19:53:32.276Z,2.90
2022-09-04T19:57:14.768Z,3.22
2022-09-04T20:00:38.246Z,3.20
2022-09-04T20:03:48.584Z,2.92
2022-09-04T20:07:14.158Z,2.90
2022-09-04T20:11:07.026Z,3.30
2022-09-04T21:37:30.496Z,2.75
2022-09-04T21:41:04.460Z,2.75
